createdAt,value
2017-07-26T00:00:02.179Z,106.62
2017-07-26T00:05:02.095Z,106.95
2017-07-26T00:10:02.362Z,106.93
2017-07-26T00:15:02.553Z,107.2
2017-07-26T00:20:02.422Z,107.57
2017-07-26T00:25:02.690Z,107.2
2017-07-26T00:30:02.883Z,107.91
2017-07-26T00:35:02.548Z,107.45
2017-07-26T00:40:02.812Z,107.36
2017-07-26T00:45:02.090Z,107.33
2017-07-26T00:50:02.510Z,107.54
2017-07-26T00:55:02.709Z,107.78
2017-07-26T01:00:02.909Z,107.38
2017-07-26T01:05:02.745Z,107.44
2017-07-26T01:10:03.006Z,107.46
2017-07-26T01:15:02.220Z,107.64
2017-07-26T01:20:02.098Z,107.59
2017-07-26T01:25:02.371Z,107.06
2017-07-26T01:30:02.553Z,107.39
2017-07-26T01:45:02.571Z,107.71
2017-07-26T01:50:02.626Z,107.76
2017-07-26T01:55:02.876Z,108.29
2017-07-26T02:00:02.095Z,108.08
2017-07-26T02:05:02.828Z,107.89
2017-07-26T02:10:03.045Z,108.04
2017-07-26T02:15:02.241Z,108.12
2017-07-26T02:20:02.169Z,107.71
2017-07-26T02:25:02.362Z,107.72
2017-07-26T02:30:02.549Z,108.08
2017-07-26T02:35:03.007Z,108.06
2017-07-26T02:40:02.250Z,108.11
2017-07-26T02:45:02.487Z,108.05
2017-07-26T02:50:02.784Z,108.16
2017-07-26T02:55:02.998Z,108.06
2017-07-26T03:00:02.217Z,108.02
2017-07-26T03:05:02.449Z,108.45
2017-07-26T03:10:02.684Z,108.55
2017-07-26T03:15:02.921Z,108.71
2017-07-26T03:20:02.510Z,108.88
2017-07-26T03:25:02.711Z,108.58
2017-07-26T03:30:02.958Z,108.77
2017-07-26T03:35:02.487Z,108.4
2017-07-26T03:40:02.742Z,108.35
2017-07-26T03:45:02.977Z,108.38
2017-07-26T03:50:02.735Z,108.26
2017-07-26T03:55:02.937Z,108.32
2017-07-26T04:00:02.162Z,108.41
2017-07-26T04:05:02.820Z,108.56
2017-07-26T04:10:02.030Z,108.66
2017-07-26T04:15:02.273Z,108.89
2017-07-26T04:20:02.531Z,109.13
2017-07-26T04:25:02.817Z,108.96
2017-07-26T04:30:03.010Z,109.51
2017-07-26T04:35:02.620Z,108.99
2017-07-26T04:40:02.853Z,109.47
2017-07-26T04:45:02.052Z,109.57
2017-07-26T04:50:02.745Z,108.97
2017-07-26T04:55:02.909Z,109.02
2017-07-26T05:00:02.130Z,109.31
2017-07-26T05:05:02.219Z,109.12
2017-07-26T05:10:02.438Z,108.97
2017-07-26T05:15:02.639Z,109.07
2017-07-26T05:20:03.093Z,109.31
2017-07-26T05:25:02.291Z,109.41
2017-07-26T05:30:02.517Z,109.24
2017-07-26T05:35:02.519Z,108.89
2017-07-26T05:40:02.760Z,109.18
2017-07-26T05:45:02.963Z,108.91
2017-07-26T05:50:02.739Z,109.36
2017-07-26T05:55:02.929Z,109.06
2017-07-26T06:00:02.077Z,109.56
2017-07-26T06:05:02.381Z,109.06
2017-07-26T06:10:02.599Z,109.41
2017-07-26T06:15:02.805Z,109.65
2017-07-26T06:20:02.544Z,109.37
2017-07-26T06:25:02.728Z,109.63
2017-07-26T06:30:02.919Z,109.35
2017-07-26T06:35:02.262Z,109.88
2017-07-26T06:40:02.489Z,109.91
2017-07-26T06:45:02.708Z,109.88
2017-07-26T06:50:02.590Z,109.25
2017-07-26T06:55:02.802Z,109.54
2017-07-26T07:00:03.000Z,109.24
2017-07-26T07:05:02.494Z,109.23
2017-07-26T07:10:02.766Z,109.32
2017-07-26T07:15:02.971Z,109.38
2017-07-26T07:20:02.644Z,109.47
2017-07-26T07:25:02.843Z,109.48
2017-07-26T07:30:02.030Z,109.7
2017-07-26T07:35:03.033Z,109.15
2017-07-26T07:40:02.282Z,109.12
2017-07-26T07:45:02.526Z,109.55
2017-07-26T07:50:02.139Z,109.7
2017-07-26T07:55:02.392Z,109.15
2017-07-26T08:00:02.604Z,109.15
2017-07-26T08:05:02.346Z,109.24
2017-07-26T08:10:02.555Z,109.53
2017-07-26T08:15:02.751Z,109.38
2017-07-26T08:20:02.722Z,109.02
2017-07-26T08:25:02.967Z,109.65
2017-07-26T08:30:02.181Z,109.14
2017-07-26T08:35:02.470Z,108.98
2017-07-26T08:40:02.692Z,108.99
2017-07-26T08:45:02.891Z,108.95
2017-07-26T08:50:02.322Z,109.19
2017-07-26T08:55:02.518Z,108.83
2017-07-26T09:00:02.689Z,108.56
2017-07-26T09:05:02.245Z,108.87
2017-07-26T09:10:02.443Z,108.43
2017-07-26T09:15:02.622Z,108.95
2017-07-26T09:20:02.547Z,108.4
2017-07-26T09:25:02.750Z,108.41
2017-07-26T09:30:02.980Z,108.45
2017-07-26T09:35:02.399Z,107.98
2017-07-26T09:40:02.640Z,107.96
2017-07-26T09:45:02.859Z,107.55
2017-07-26T09:50:02.998Z,107.26
2017-07-26T09:55:02.220Z,106.34
2017-07-26T10:00:02.486Z,106.25
2017-07-26T10:05:03.039Z,105.72
2017-07-26T10:10:02.253Z,105.63
2017-07-26T10:15:02.449Z,105.41
2017-07-26T10:20:02.830Z,105.04
2017-07-26T10:25:02.029Z,104.02
2017-07-26T10:30:02.259Z,103.75
2017-07-26T10:35:02.605Z,103.18
2017-07-26T10:40:02.860Z,103
2017-07-26T10:45:02.020Z,102.55
2017-07-26T10:50:02.413Z,102.52
2017-07-26T10:55:02.600Z,102.5
2017-07-26T11:00:02.837Z,102.07
2017-07-26T11:05:02.551Z,101.4
2017-07-26T11:10:02.788Z,100.56
2017-07-26T11:15:02.993Z,99.68
2017-07-26T11:20:02.248Z,98.4
2017-07-26T11:25:02.462Z,98.11
2017-07-26T11:30:02.665Z,96.83
2017-07-26T11:35:02.119Z,95.97
2017-07-26T11:40:02.441Z,94.45
2017-07-26T11:45:02.725Z,94.58
2017-07-26T11:50:02.344Z,92.67
2017-07-26T11:55:02.583Z,91.31
2017-07-26T12:00:02.771Z,89.84
2017-07-26T12:05:02.390Z,85.46
2017-07-26T12:10:02.638Z,87.83
2017-07-26T12:15:02.849Z,83.69
2017-07-26T12:20:02.443Z,82.79
2017-07-26T12:25:02.635Z,82.92
2017-07-26T12:30:02.841Z,82.51
2017-07-26T12:35:02.033Z,82.9
2017-07-26T12:40:02.297Z,82.53
2017-07-26T12:45:02.503Z,79.38
2017-07-26T12:50:02.119Z,79.02
2017-07-26T12:55:02.381Z,80.65
2017-07-26T13:00:02.624Z,77.69
2017-07-26T13:05:02.284Z,77.42
2017-07-26T13:10:02.501Z,79.42
2017-07-26T13:15:02.667Z,78.16
2017-07-26T13:20:02.863Z,77.29
2017-07-26T13:25:02.050Z,74.08
2017-07-26T13:30:02.284Z,73.81
2017-07-26T13:35:02.724Z,72.09
2017-07-26T13:40:02.923Z,72.24
2017-07-26T13:45:02.088Z,72.31
2017-07-26T13:50:02.682Z,74.29
2017-07-26T13:55:02.941Z,70.81
2017-07-26T14:00:02.245Z,72.17
2017-07-26T14:05:02.406Z,71.33
2017-07-26T14:10:02.675Z,67.85
2017-07-26T14:15:02.865Z,67.91
2017-07-26T14:20:02.475Z,68.95
2017-07-26T14:25:02.651Z,69.42
2017-07-26T14:30:02.867Z,68.09
2017-07-26T14:35:02.484Z,68.53
2017-07-26T14:40:02.713Z,70.32
2017-07-26T14:45:02.953Z,69.89
2017-07-26T14:50:02.330Z,70.83
2017-07-26T14:55:02.572Z,71.05
2017-07-26T15:00:02.768Z,70.25
2017-07-26T15:05:02.740Z,69.21
2017-07-26T15:10:02.936Z,69.34
2017-07-26T15:15:02.133Z,70.3
2017-07-26T15:20:02.258Z,71.32
2017-07-26T15:25:02.451Z,71.52
2017-07-26T15:30:02.656Z,72.75
2017-07-26T15:35:02.540Z,73.03
2017-07-26T15:40:02.763Z,73.04
2017-07-26T15:45:02.983Z,73.76
2017-07-26T15:50:02.839Z,74.44
2017-07-26T15:55:02.050Z,74.84
2017-07-26T16:00:02.293Z,75.12
2017-07-26T16:05:02.099Z,74.7
2017-07-26T16:10:02.434Z,76.11
2017-07-26T16:15:02.677Z,75.58
2017-07-26T16:20:02.341Z,75.39
2017-07-26T16:25:02.537Z,75.58
2017-07-26T16:30:02.746Z,76.06
2017-07-26T16:35:02.519Z,75.47
2017-07-26T16:40:02.707Z,75.55
2017-07-26T16:45:02.964Z,75.5
2017-07-26T16:50:03.018Z,75.61
2017-07-26T16:55:02.245Z,75.67
2017-07-26T17:00:02.463Z,75.93
2017-07-26T17:05:02.881Z,76.13
2017-07-26T17:10:02.376Z,75.12
2017-07-26T17:15:02.576Z,75.26
2017-07-26T17:20:02.681Z,75.46
2017-07-26T17:25:02.881Z,74.74
2017-07-26T17:30:02.068Z,74.13
2017-07-26T17:35:02.561Z,74.68
2017-07-26T17:40:02.799Z,75.3
2017-07-26T17:45:02.962Z,76.16
2017-07-26T17:50:02.998Z,75.9
2017-07-26T17:55:02.212Z,75.75
2017-07-26T18:00:02.445Z,75.3
2017-07-26T18:05:02.577Z,75
2017-07-26T18:10:02.827Z,75.71
2017-07-26T18:15:02.981Z,75.87
2017-07-26T18:20:02.511Z,76.16
2017-07-26T18:25:02.723Z,76.04
2017-07-26T18:30:02.919Z,75.65
2017-07-26T18:35:02.964Z,75.81
2017-07-26T18:40:02.232Z,76.3
2017-07-26T18:45:02.424Z,76.58
2017-07-26T18:50:02.384Z,76.97
2017-07-26T18:55:02.579Z,77.85
2017-07-26T19:00:02.774Z,78.3
2017-07-26T19:05:03.038Z,78.94
2017-07-26T19:10:02.267Z,80.15
2017-07-26T19:15:02.497Z,80.65
2017-07-26T19:20:02.350Z,81.51
2017-07-26T19:25:02.537Z,82.09
2017-07-26T19:30:02.734Z,82.78
2017-07-26T19:35:02.083Z,82.93
2017-07-26T19:40:02.328Z,84.19
2017-07-26T19:45:02.532Z,85.66
2017-07-26T19:50:02.730Z,86.28
2017-07-26T19:55:02.938Z,86.85
2017-07-26T20:00:02.171Z,88.28
2017-07-26T20:05:02.940Z,88.48
2017-07-26T20:10:02.258Z,88.79
2017-07-26T20:15:02.428Z,89.63
2017-07-26T20:20:02.406Z,89.74
2017-07-26T20:25:02.605Z,89.72
2017-07-26T20:30:02.793Z,89.97
2017-07-26T20:35:02.529Z,90.26
2017-07-26T20:40:02.750Z,91.4
2017-07-26T20:45:02.924Z,91.42
2017-07-26T20:50:02.486Z,92.09
2017-07-26T20:55:02.691Z,92.43
2017-07-26T21:00:02.907Z,92.7
2017-07-26T21:05:02.453Z,92
2017-07-26T21:10:02.674Z,92.93
2017-07-26T21:15:02.876Z,92.83
2017-07-26T21:20:02.442Z,93.04
2017-07-26T21:25:02.665Z,93.58
2017-07-26T21:30:02.867Z,94.5
2017-07-26T21:35:02.587Z,95.19
2017-07-26T21:40:02.895Z,95.25
2017-07-26T21:45:02.128Z,95.52
2017-07-26T21:50:02.564Z,95.13
2017-07-26T21:55:02.776Z,95.14
2017-07-26T22:00:02.152Z,94.99
2017-07-26T22:05:02.833Z,95.44
2017-07-26T22:10:02.047Z,95.54
2017-07-26T22:15:02.286Z,95.85
2017-07-26T22:20:02.934Z,96.04
2017-07-26T22:25:02.146Z,96.12
2017-07-26T22:30:02.401Z,96.5
2017-07-26T22:35:02.740Z,96.51
2017-07-26T22:40:02.959Z,96.65
2017-07-26T22:45:02.175Z,96.18
2017-07-26T22:50:02.998Z,95.88
2017-07-26T22:55:02.166Z,95.92
2017-07-26T23:00:02.393Z,95.69
2017-07-26T23:05:02.668Z,96.04
2017-07-26T23:10:02.898Z,96.21
2017-07-26T23:15:02.089Z,96.38
2017-07-26T23:20:02.378Z,96.56
2017-07-26T23:25:02.561Z,96.76
2017-07-26T23:30:02.805Z,96.96
2017-07-26T23:35:02.512Z,97.22
2017-07-26T23:40:02.746Z,97.31
2017-07-26T23:45:02.919Z,97.32
2017-07-26T23:50:02.656Z,97.51
2017-07-26T23:55:02.887Z,97.68
